RESULTATS »

INSCRITS PRESENTATS ACABEN RETIRATS DESQUALIFICATS DIST. TRAM 1 DIST. TRAM 2 DIST. TRAM 3 TEMP. EXT TEMP. AIGUA
0 0 0 0 1500 40 10 0 0

CLASSIFICACIÓ

MASCULÍ FEMENÍ CATEGORIES CLUBS (MASCULINA) CLUBS (FEMENINA) INDIVIDUALS GRUPS D'EDAT

LLOCDORSALNOMCLUBCAT.T.META| P.Tram 1 || P.Tram 2 |Km/hTEMPS| P.Tram 3 |PARC_1PARC_2
1 82MERCE TUSELL QUEVEDOC.N. REUS PLOMSABF02:30:0420100:30:0715401:16:5831.1801:47:0518900:42:590:00:000:00:00
2 39REGINA ANNA MOLA GIBERTC.N. MATAROV1F02:31:067400:28:2118901:18:4030.5101:47:0125100:44:050:00:000:00:00
3 12MAR CELMA MARINC.N. PRAT-TRIATLOABF02:31:305200:24:2820301:19:0730.3301:43:3545000:47:550:00:000:00:00
4 105CAROLINA JORDI OLANOC.T.S.J. ABADESSESABF02:32:016300:26:4024501:20:3429.7901:47:1428900:44:470:00:000:00:00
5 1814LAIA PI BOLTAC.N. CATALUNYASUB23F02:33:30000:00:00000:00:000.0000:00:00000:00:000:00:000:00:00
6 1976PILAR RUS GARCIAC.N. REUS PLOMSABF02:33:4121100:30:2321001:19:2230.2401:49:4524300:43:560:00:000:00:00
7 1934KATE KRISTI KIDGERC.N. CATALUNYAABF02:33:566200:26:3722201:19:5030.0601:46:2743100:47:290:00:000:00:00
8 1985LAURA GARCIA VILACLUB NATACIÓ BANYOLESABF02:35:496000:26:3228001:21:5229.3201:48:2442600:47:250:00:000:00:00
9 34JUDITH ANDUJAR PIÑOLC. TRI. GRANOLLERSABF02:37:1412500:29:1027701:21:4629.3501:50:5636400:46:180:00:000:00:00
10 104VANESSA JORDI OLANOC.T.S.J. ABADESSESABF02:37:266800:27:2531301:23:0528.8901:50:3040500:46:560:00:000:00:00
11 1925TERESA JORI GARCIAINFINITRIABF02:37:4216100:29:3330301:22:3829.0401:52:1131700:45:310:00:000:00:00
12 1803OLGA SEPÚLVEDA SERRANOC.N. PRAT-TRIATLOABF02:37:5128600:31:3832301:23:3128.7401:55:0917600:42:420:00:000:00:00
13 1912MERCE ASENSIO MIGUELC.N. CATALUNYAV1F02:38:306100:26:3627201:21:3829.4001:48:1456600:50:160:00:000:00:00
14 1957BARBARA GINER HINTERMAYERSOC ATLETICA CORBERAABF02:38:3615200:29:2624301:20:3229.8001:49:5848400:48:380:00:000:00:00
15 1852AIDA PINTO BIESCASC.N. MANRESAABF02:39:175500:25:4038701:25:1228.1701:50:5247700:48:250:00:000:00:00
16 5034CAROLINE LINDSAY HARRIMANLLICENCIA DE DIAABF02:39:216400:26:4227401:21:4129.3801:48:2359700:50:580:00:000:00:00
17 59QUERALT RIBA HERNANDEZC.E. TERRASSASPORTS SUB23F02:39:3831500:32:0325101:20:4929.7001:52:5239200:46:460:00:000:00:00
18 5043EVA RAMIO BOSCHLLICENCIA DE DIAABF02:39:5120700:30:1821901:19:4430.1001:50:0255200:49:490:00:000:00:00
19 1982LAIA RIERA GONZALEZB-B TRIATLO L´AMETLLA V.ABF02:42:416900:27:5338201:25:0928.1901:53:0254300:49:390:00:000:00:00
20 4046JUDIT BALTRONS OLIVERASCLUB TRIATLO BLANESABF02:44:5619600:29:5731001:23:0028.9201:52:5763700:51:590:00:000:00:00
21 3521MONICA CRISOL SALASC.N. PRAT-TRIATLOABF02:45:0719200:29:5145101:27:3827.3901:57:2943900:47:380:00:000:00:00
22 1836MARIA GRAMAGE DONATC.N. PRAT-TRIATLOABF02:45:1831700:32:0431201:23:0528.8901:55:0956200:50:090:00:000:00:00
23 4080MIRIAM ALBERO ABASCALI3 TRIATHLONSUB23F02:45:5430600:31:5443501:26:5027.6401:58:4441400:47:100:00:000:00:00
24 57FOIX TROTONDA MIQUELC.N. VILAFRANCASUB23F02:46:006600:26:5233601:23:5428.6101:50:4675400:55:140:00:000:00:00
25 1969SANDRA VICENTE MORENOC.T.S.J. ABADESSESABF02:46:0616900:29:3743201:26:4427.6701:56:2154600:49:450:00:000:00:00
26 123CATARINA SOUSACLUB TRIATLO SABADELLABF02:46:175600:25:4439801:25:3928.0201:51:2373900:54:540:00:000:00:00
27 5054ANNA COMALAT ROCALLICENCIA DE DIAV1F02:47:1723400:30:4438801:25:1628.1501:56:0060600:51:170:00:000:00:00
28 68MERCHE BONASTRE RODRIGUEZC.N. PRAT-TRIATLOV1F02:47:5148500:35:1937601:24:5828.2502:00:1743500:47:340:00:000:00:00
29 1904MAR QUERA BOFARULLCLUB POLIESPORTIU PUIGCERABF02:48:037000:28:1034301:24:0228.5601:52:1276100:55:510:00:000:00:00
30 4003ARIADNA COLL TRULLÀSCLUB TRIATLO BADIA DEL VAABF02:48:0821700:30:3252501:30:3626.4902:01:0840900:47:000:00:000:00:00
31 3501MIRIAM CODINA CASTILLOC. TRI. GRANOLLERSABF02:48:1720600:30:1740901:25:5527.9301:56:1264200:52:050:00:000:00:00
32 4070SUSANA CASTAN SALINASCLUB TRIATLO RUNNERSWORLDV1F02:48:3459800:40:3459501:40:2523.9002:20:59100:27:350:00:000:00:00
33 85SUSAGNA RODRÍGUEZ RUANOCLUB TRIATLO L´EIX DE NAVABF02:48:426500:26:4746201:28:0727.2401:54:5470600:53:480:00:000:00:00
34 3503GLÒRIA ESPINAR MAQUEDACLUB WATERPOLO FIGUERESABF02:49:215100:23:5951001:30:1026.6201:54:0975300:55:120:00:000:00:00
35 6MONTSE JUNCAROL REGUANTCLUB TRIATLO L´EIX DE NAVV1F02:49:5431800:32:0543601:26:5227.6301:58:5759600:50:570:00:000:00:00
36 3566CAROLINA ESTEFAM NAHUZTRIATLO BCN-TRIFORFUNABF02:50:1845700:34:4443701:26:5427.6202:01:3848800:48:400:00:000:00:00
37 6030SONIA BASSAS TORRENTLLICENCIA DE DIAABF02:50:3547600:35:0342501:26:2927.7502:01:3250400:49:030:00:000:00:00
38 3567SILVIA RODRIGUEZ DONAIRECERDANYOLA CHABF02:51:0225700:31:1140401:25:4827.9701:56:5971400:54:030:00:000:00:00
39 5RAQUEL DEL AGUILA BRAVOTRIATLO BCN-TRIFORFUNABF02:51:4121000:30:2330401:22:4129.0301:53:0479600:58:370:00:000:00:00
40 5016GABRIELLA BUCCILLICENCIA DE DIAABF02:53:2824900:31:0451901:30:2626.5402:01:3063600:51:580:00:000:00:00
41 126BLANCA TRENAS HINOJOSATRIATLO BCN-TRIFORFUNABF02:53:3050500:36:0649601:29:2526.8402:05:3145500:47:590:00:000:00:00
42 1901VERONIQUE CHENAULTANGLES TRIATHLONV1F02:54:1144200:34:2744701:27:3127.4202:01:5864600:52:130:00:000:00:00
43 4029LAURA COSTA VIRGILICERDANYOLA CHABF02:54:3139400:33:1048801:29:0526.9402:02:1565000:52:160:00:000:00:00
44 3578LAIA ALSINA VIUCLUB TRIATLO BLANESJNF02:55:4137000:32:5047401:28:3827.0802:01:2872100:54:130:00:000:00:00
45 55SONIA RODRIGUEZ FRAMISCLUB TRIATLO BLANESABF02:55:4137100:32:5148601:29:0126.9602:01:5270700:53:490:00:000:00:00
46 3525GEMMA FARRE VILACLUB TRIATLO SABADELLABF02:57:1555000:37:3250401:29:4026.7702:07:1255800:50:030:00:000:00:00
47 90SILVIA SERRA LLUVERASTEAM CALELLA TRIATHLONABF02:57:3330900:31:5755901:33:3925.6302:05:3663300:51:570:00:000:00:00
48 74LISA COCKBURNC.N. SABADELLV2F02:57:5543400:34:0852801:30:5526.4002:05:0366600:52:520:00:000:00:00
49 1844SANDRA SUBIRANA PARERACLUB TRIATLO L´EIX DE NAVABF02:58:0744400:34:2950001:29:2826.8302:03:5771900:54:100:00:000:00:00
50 3584EVA SANCHEZ TABIOSCLUB TRIATLO L´EIX DE NAVABF02:58:2730400:31:5154801:32:1426.0202:04:0572500:54:220:00:000:00:00
51 5036YIYANG LINLLICENCIA DE DIAABF02:59:0735800:32:4154701:32:0326.0702:04:4472600:54:230:00:000:00:00
52 20MONSERRAT CLAVERO SANCHEZC.N. REUS PLOMSV2F02:59:5725000:31:0556301:34:0125.5302:05:0673600:54:510:00:000:00:00
53 4088AINA PICAS ZORRILLACLUB TRIATLO L´EIX DE NAVABF03:00:2339500:33:1153301:31:0926.3302:04:2076700:56:030:00:000:00:00
54 3523CLARA BOSCH COMASC.T.S.J. ABADESSESABF03:01:2956000:37:5353401:31:1226.3202:09:0565300:52:240:00:000:00:00
55 6009TIPHAINE ANDERBOUHRLLICENCIA DE DIAABF03:01:4948800:35:2254901:32:2225.9802:07:4471600:54:050:00:000:00:00
56 5005GEMMA ROSELL COMABELLATRIDEPORTE.COMABF03:02:4556100:37:5842901:26:3627.7102:04:3478900:58:110:00:000:00:00
57 1930YOLANDA LOPEZ BERDUMC. TRI. GRANOLLERSABF03:03:2558600:39:2144401:27:1027.5302:06:3177600:56:540:00:000:00:00
58 1905CAROLINA VALMAÑA PIC.N. CATALUNYAABF03:03:4714500:29:2360701:47:2622.3402:16:4940700:46:580:00:000:00:00
59 5027KRISTIN SCHLAG STRATHMANNLLICENCIA DE DIAABF03:04:0646900:34:5657201:35:3125.1302:10:2770100:53:390:00:000:00:00
60 31MONTSE CUEVAS CASTILLOC. TRI. GRANOLLERSV2F03:04:3738400:33:0058701:38:1824.4202:11:1868100:53:190:00:000:00:00
61 1900MARTA CERDÀ LAFONTC.N. CATALUNYAABF03:04:4816400:29:3559401:40:2423.9002:09:5973400:54:490:00:000:00:00
62 1831LAIA SALVADOR LLADOC.N. MATAROV1F03:05:2640600:33:3057001:34:5525.2902:08:2577900:57:010:00:000:00:00
63 7ANNA BAEZA DALMAUC.T.S.J. ABADESSESABF03:08:0056600:38:2254501:31:4826.1402:10:1078600:57:500:00:000:00:00
64 5049PAOLA CAMPRECIÓS LEDLLICENCIA DE DIASUB23F03:08:4237800:32:5761301:53:5121.0802:26:4813800:41:540:00:000:00:00
65 5010XINXIN LINLLICENCIA DE DIAABF03:08:4231200:32:0060001:44:2722.9802:16:2764800:52:150:00:000:00:00
66 13JUDITH LLUENT VALLETTRIATLO JOVENT 79V1F03:10:2223000:30:4156701:34:4225.3402:05:2382301:04:590:00:000:00:00
67 122INES MESTRE CARRASCOCLUB TRIATLO BLANESABF03:11:1934600:32:3360401:46:4322.4902:19:1663800:52:030:00:000:00:00
68 4085EULALIA MASRIERA ARNAUCLUB TRIATLO SABADELLABF03:15:3458700:39:3059901:44:1023.0402:23:4063100:51:540:00:000:00:00
69 6044OLGA NAVARRO I SANDALINASLLICENCIA DE DIAABF03:17:2331600:32:0360101:44:4522.9102:16:4880801:00:350:00:000:00:00
70 3557ANNA PASCUAL PICHCLUB NATACIÓ BANYOLESV1F03:18:3960000:40:4659001:39:2724.1302:20:1379100:58:260:00:000:00:00
71 6015ALÍCIA VILÀ MEDINALLICENCIA DE DIAV1F03:19:5147400:35:0160801:48:1422.1702:23:1577400:56:360:00:000:00:00
72 32LOURDES TORRES BAUMGARTNEGAVA TRIATLOV1F03:25:4861300:42:3559201:39:3024.1202:22:0581601:03:430:00:000:00:00
73 5006ANA BARBA SOLERLLICENCIA DE DIAV1F03:28:4160600:41:1061101:50:0221.8102:31:1278100:57:290:00:000:00:00
74 16ROSA MARIA MOR ABATCLUB CASTELLFOLLIT TRIATLV2F03:30:4958100:39:0760601:47:1122.3902:26:1881801:04:310:00:000:00:00
75 1851MARTA SANCHEZ SALINASCLUB TRIATLO L´EIX DE NAVV1F03:40:0755500:37:3961401:55:4320.7402:33:2282601:06:450:00:000:00:00
76 1860MONTSE PRADA MEDINACERDANYOLA CHABF03:40:5434000:32:2961501:57:0320.5002:29:3283201:11:220:00:000:00:00






FEDERACIÓ CATALANA DE TRIATLÓ
SEU CENTRAL I CORRESPONDÈNCIA: Rambla Guipúscoa 23-25 2on-D · 08018 Barcelona · Tel / Fax : 93 307 93 35
ATENCIÓ AL PÚBLIC: Passeig Joan de Borbó, 93 (Club Natació Barcelona) · 08039 Barcelona · Tel / Fax : 93 307 93 32